sensor_id;sensor_type;location;lat;lon;timestamp;temperature;humidity
20345;DHT22;10330;48.816;9.278;2023-04-24T00:25:13;12.00;99.90
20345;DHT22;10330;48.816;9.278;2023-04-24T00:59:45;11.90;99.90
20345;DHT22;10330;48.816;9.278;2023-04-24T01:28:36;12.10;99.90
20345;DHT22;10330;48.816;9.278;2023-04-24T01:35:28;12.10;99.90
20345;DHT22;10330;48.816;9.278;2023-04-24T01:42:18;12.10;99.90
20345;DHT22;10330;48.816;9.278;2023-04-24T01:44:50;12.10;99.90
20345;DHT22;10330;48.816;9.278;2023-04-24T01:47:20;12.10;99.90
20345;DHT22;10330;48.816;9.278;2023-04-24T01:49:50;12.10;99.90
20345;DHT22;10330;48.816;9.278;2023-04-24T01:52:17;12.10;99.90
20345;DHT22;10330;48.816;9.278;2023-04-24T02:02:31;12.10;99.90
20345;DHT22;10330;48.816;9.278;2023-04-24T02:04:58;12.00;99.90
20345;DHT22;10330;48.816;9.278;2023-04-24T02:07:37;12.00;99.90
20345;DHT22;10330;48.816;9.278;2023-04-24T02:30:20;11.80;99.90
20345;DHT22;10330;48.816;9.278;2023-04-24T02:32:58;11.80;99.90
20345;DHT22;10330;48.816;9.278;2023-04-24T02:35:33;11.80;99.90
20345;DHT22;10330;48.816;9.278;2023-04-24T02:38:20;11.80;99.90
20345;DHT22;10330;48.816;9.278;2023-04-24T02:40:47;11.80;99.90
20345;DHT22;10330;48.816;9.278;2023-04-24T02:43:32;11.80;99.90
20345;DHT22;10330;48.816;9.278;2023-04-24T03:09:10;11.60;99.90
20345;DHT22;10330;48.816;9.278;2023-04-24T03:12:23;11.50;99.90
20345;DHT22;10330;48.816;9.278;2023-04-24T03:56:27;11.20;99.90
20345;DHT22;10330;48.816;9.278;2023-04-24T04:06:50;11.10;99.90
20345;DHT22;10330;48.816;9.278;2023-04-24T04:20:41;11.00;99.90
20345;DHT22;10330;48.816;9.278;2023-04-24T04:23:16;11.10;99.90
20345;DHT22;10330;48.816;9.278;2023-04-24T04:25:53;11.10;99.90
20345;DHT22;10330;48.816;9.278;2023-04-24T04:28:27;11.10;99.90
20345;DHT22;10330;48.816;9.278;2023-04-24T06:00:12;10.60;99.90
20345;DHT22;10330;48.816;9.278;2023-04-24T06:03:04;10.60;99.90
20345;DHT22;10330;48.816;9.278;2023-04-24T06:05:37;10.60;99.90
20345;DHT22;10330;48.816;9.278;2023-04-24T06:11:09;10.70;99.90
20345;DHT22;10330;48.816;9.278;2023-04-24T06:16:33;10.60;99.90
20345;DHT22;10330;48.816;9.278;2023-04-24T06:19:06;10.60;99.90
20345;DHT22;10330;48.816;9.278;2023-04-24T06:21:35;10.60;99.90
20345;DHT22;10330;48.816;9.278;2023-04-24T06:24:14;10.60;99.90
20345;DHT22;10330;48.816;9.278;2023-04-24T06:27:01;10.60;99.90
20345;DHT22;10330;48.816;9.278;2023-04-24T06:29:32;10.70;99.90
20345;DHT22;10330;48.816;9.278;2023-04-24T06:32:02;10.80;99.90
20345;DHT22;10330;48.816;9.278;2023-04-24T06:34:30;10.90;99.90
20345;DHT22;10330;48.816;9.278;2023-04-24T06:37:01;11.10;99.90
20345;DHT22;10330;48.816;9.278;2023-04-24T06:42:48;11.20;99.90
20345;DHT22;10330;48.816;9.278;2023-04-24T06:45:47;11.40;99.90
20345;DHT22;10330;48.816;9.278;2023-04-24T06:48:17;11.50;99.90
20345;DHT22;10330;48.816;9.278;2023-04-24T06:50:47;11.60;99.90
20345;DHT22;10330;48.816;9.278;2023-04-24T06:53:41;11.70;99.90
20345;DHT22;10330;48.816;9.278;2023-04-24T06:56:35;11.80;99.90
20345;DHT22;10330;48.816;9.278;2023-04-24T06:59:04;11.90;99.90
20345;DHT22;10330;48.816;9.278;2023-04-24T07:01:42;11.90;99.90
20345;DHT22;10330;48.816;9.278;2023-04-24T07:04:47;11.90;99.90
20345;DHT22;10330;48.816;9.278;2023-04-24T07:07:54;12.00;99.90
20345;DHT22;10330;48.816;9.278;2023-04-24T07:10:27;12.10;99.90
20345;DHT22;10330;48.816;9.278;2023-04-24T07:15:56;12.30;99.90
20345;DHT22;10330;48.816;9.278;2023-04-24T07:18:52;12.30;99.90
20345;DHT22;10330;48.816;9.278;2023-04-24T07:21:20;12.30;99.90
20345;DHT22;10330;48.816;9.278;2023-04-24T07:26:54;12.10;99.90
20345;DHT22;10330;48.816;9.278;2023-04-24T07:29:21;12.10;99.90
20345;DHT22;10330;48.816;9.278;2023-04-24T07:32:12;12.10;99.90
20345;DHT22;10330;48.816;9.278;2023-04-24T07:34:42;12.00;99.90
20345;DHT22;10330;48.816;9.278;2023-04-24T07:37:32;12.00;99.90
20345;DHT22;10330;48.816;9.278;2023-04-24T07:47:29;12.00;99.90
20345;DHT22;10330;48.816;9.278;2023-04-24T07:49:59;12.20;99.90
20345;DHT22;10330;48.816;9.278;2023-04-24T07:52:41;12.20;99.90
20345;DHT22;10330;48.816;9.278;2023-04-24T07:55:41;12.30;99.90
20345;DHT22;10330;48.816;9.278;2023-04-24T07:58:54;12.30;99.90
20345;DHT22;10330;48.816;9.278;2023-04-24T08:01:24;12.40;99.90
20345;DHT22;10330;48.816;9.278;2023-04-24T08:17:35;12.30;99.90
20345;DHT22;10330;48.816;9.278;2023-04-24T08:20:15;12.20;99.90
20345;DHT22;10330;48.816;9.278;2023-04-24T08:23:32;12.00;99.90
20345;DHT22;10330;48.816;9.278;2023-04-24T08:26:08;12.10;99.90
20345;DHT22;10330;48.816;9.278;2023-04-24T08:29:01;12.10;99.90
20345;DHT22;10330;48.816;9.278;2023-04-24T08:31:51;12.10;99.90
20345;DHT22;10330;48.816;9.278;2023-04-24T08:34:25;12.20;99.90
20345;DHT22;10330;48.816;9.278;2023-04-24T08:36:57;12.40;99.90
20345;DHT22;10330;48.816;9.278;2023-04-24T08:39:37;12.60;99.90
20345;DHT22;10330;48.816;9.278;2023-04-24T08:42:14;12.70;99.90
20345;DHT22;10330;48.816;9.278;2023-04-24T08:45:02;12.60;99.90
20345;DHT22;10330;48.816;9.278;2023-04-24T08:47:44;12.70;99.90
20345;DHT22;10330;48.816;9.278;2023-04-24T08:50:17;12.80;99.90
20345;DHT22;10330;48.816;9.278;2023-04-24T08:53:10;12.80;99.90
20345;DHT22;10330;48.816;9.278;2023-04-24T08:55:41;12.70;99.90
20345;DHT22;10330;48.816;9.278;2023-04-24T09:01:46;12.60;99.90
20345;DHT22;10330;48.816;9.278;2023-04-24T09:04:28;12.50;99.90
20345;DHT22;10330;48.816;9.278;2023-04-24T09:10:51;12.40;99.90
20345;DHT22;10330;48.816;9.278;2023-04-24T09:13:21;12.40;99.90
20345;DHT22;10330;48.816;9.278;2023-04-24T09:19:15;12.40;99.90
20345;DHT22;10330;48.816;9.278;2023-04-24T09:21:47;12.10;99.90
20345;DHT22;10330;48.816;9.278;2023-04-24T09:24:19;11.80;99.90
20345;DHT22;10330;48.816;9.278;2023-04-24T09:29:24;11.70;99.90
20345;DHT22;10330;48.816;9.278;2023-04-24T09:40:44;11.50;99.90
20345;DHT22;10330;48.816;9.278;2023-04-24T09:45:40;10.90;99.90
20345;DHT22;10330;48.816;9.278;2023-04-24T09:48:10;11.10;99.90
20345;DHT22;10330;48.816;9.278;2023-04-24T09:51:46;11.10;99.90
20345;DHT22;10330;48.816;9.278;2023-04-24T09:54:32;11.20;99.90
20345;DHT22;10330;48.816;9.278;2023-04-24T09:57:24;11.40;99.90
20345;DHT22;10330;48.816;9.278;2023-04-24T09:59:54;11.70;99.90
20345;DHT22;10330;48.816;9.278;2023-04-24T10:09:40;11.70;99.90
20345;DHT22;10330;48.816;9.278;2023-04-24T10:12:14;11.80;99.90
20345;DHT22;10330;48.816;9.278;2023-04-24T10:14:46;11.90;99.90
20345;DHT22;10330;48.816;9.278;2023-04-24T10:17:14;12.00;99.90
20345;DHT22;10330;48.816;9.278;2023-04-24T10:19:41;11.90;99.90
20345;DHT22;10330;48.816;9.278;2023-04-24T10:22:21;12.00;99.90
20345;DHT22;10330;48.816;9.278;2023-04-24T10:25:09;12.10;99.90
20345;DHT22;10330;48.816;9.278;2023-04-24T10:27:36;12.40;99.90
20345;DHT22;10330;48.816;9.278;2023-04-24T10:30:07;12.60;99.90
20345;DHT22;10330;48.816;9.278;2023-04-24T10:32:40;12.70;99.90
20345;DHT22;10330;48.816;9.278;2023-04-24T10:38:48;12.70;99.90
20345;DHT22;10330;48.816;9.278;2023-04-24T10:44:49;12.60;99.90
20345;DHT22;10330;48.816;9.278;2023-04-24T10:47:39;12.40;99.90
20345;DHT22;10330;48.816;9.278;2023-04-24T10:50:51;12.30;99.90
20345;DHT22;10330;48.816;9.278;2023-04-24T10:56:52;12.10;99.90
20345;DHT22;10330;48.816;9.278;2023-04-24T11:00:12;12.10;99.90
20345;DHT22;10330;48.816;9.278;2023-04-24T11:02:46;12.10;99.90
20345;DHT22;10330;48.816;9.278;2023-04-24T11:09:09;12.10;99.90
20345;DHT22;10330;48.816;9.278;2023-04-24T11:15:40;12.00;99.90
20345;DHT22;10330;48.816;9.278;2023-04-24T12:38:37;12.50;99.90
20345;DHT22;10330;48.816;9.278;2023-04-24T12:47:54;12.50;99.90
20345;DHT22;10330;48.816;9.278;2023-04-24T12:50:24;12.40;99.90
20345;DHT22;10330;48.816;9.278;2023-04-24T12:53:24;12.40;99.90
20345;DHT22;10330;48.816;9.278;2023-04-24T12:55:56;12.40;99.90
20345;DHT22;10330;48.816;9.278;2023-04-24T12:58:22;12.60;99.90
20345;DHT22;10330;48.816;9.278;2023-04-24T13:00:52;12.50;99.90
20345;DHT22;10330;48.816;9.278;2023-04-24T13:03:19;12.50;99.90
20345;DHT22;10330;48.816;9.278;2023-04-24T13:06:53;12.40;99.90
20345;DHT22;10330;48.816;9.278;2023-04-24T13:09:31;12.10;99.90
20345;DHT22;10330;48.816;9.278;2023-04-24T13:25:02;11.20;99.90
20345;DHT22;10330;48.816;9.278;2023-04-24T13:27:29;11.80;99.90
20345;DHT22;10330;48.816;9.278;2023-04-24T13:30:35;12.50;99.90
20345;DHT22;10330;48.816;9.278;2023-04-24T13:36:06;12.60;99.90
20345;DHT22;10330;48.816;9.278;2023-04-24T13:38:38;12.50;99.90
20345;DHT22;10330;48.816;9.278;2023-04-24T13:48:01;12.60;99.90
20345;DHT22;10330;48.816;9.278;2023-04-24T13:56:57;12.30;99.90
20345;DHT22;10330;48.816;9.278;2023-04-24T13:59:42;12.30;99.90
20345;DHT22;10330;48.816;9.278;2023-04-24T14:31:06;13.10;99.90
20345;DHT22;10330;48.816;9.278;2023-04-24T15:01:07;13.10;99.90
20345;DHT22;10330;48.816;9.278;2023-04-24T15:03:35;12.90;99.90
20345;DHT22;10330;48.816;9.278;2023-04-24T15:10:11;13.50;99.90
20345;DHT22;10330;48.816;9.278;2023-04-24T15:39:25;12.70;99.90
20345;DHT22;10330;48.816;9.278;2023-04-24T15:58:28;12.40;99.90
20345;DHT22;10330;48.816;9.278;2023-04-24T16:08:14;12.90;99.90
20345;DHT22;10330;48.816;9.278;2023-04-24T16:10:44;13.80;99.90
20345;DHT22;10330;48.816;9.278;2023-04-24T16:13:12;14.40;99.90
20345;DHT22;10330;48.816;9.278;2023-04-24T16:15:39;15.00;99.90
20345;DHT22;10330;48.816;9.278;2023-04-24T16:18:06;15.40;99.90
20345;DHT22;10330;48.816;9.278;2023-04-24T16:20:32;15.90;99.90
20345;DHT22;10330;48.816;9.278;2023-04-24T16:22:58;16.00;99.90
20345;DHT22;10330;48.816;9.278;2023-04-24T16:25:25;16.30;99.90
20345;DHT22;10330;48.816;9.278;2023-04-24T16:27:51;16.50;99.90
20345;DHT22;10330;48.816;9.278;2023-04-24T16:30:18;16.30;99.90
20345;DHT22;10330;48.816;9.278;2023-04-24T16:32:44;16.30;99.90
20345;DHT22;10330;48.816;9.278;2023-04-24T16:35:14;16.50;99.90
20345;DHT22;10330;48.816;9.278;2023-04-24T16:40:07;16.30;99.90
20345;DHT22;10330;48.816;9.278;2023-04-24T16:42:36;16.20;99.90
20345;DHT22;10330;48.816;9.278;2023-04-24T16:45:03;16.60;99.90
20345;DHT22;10330;48.816;9.278;2023-04-24T16:52:25;16.30;99.90
20345;DHT22;10330;48.816;9.278;2023-04-24T16:54:52;14.80;99.90
20345;DHT22;10330;48.816;9.278;2023-04-24T16:59:44;14.50;99.90
20345;DHT22;10330;48.816;9.278;2023-04-24T17:26:37;14.10;99.90
20345;DHT22;10330;48.816;9.278;2023-04-24T17:29:04;13.10;99.90
20345;DHT22;10330;48.816;9.278;2023-04-24T17:33:56;13.10;99.90
20345;DHT22;10330;48.816;9.278;2023-04-24T17:38:50;13.20;99.90
20345;DHT22;10330;48.816;9.278;2023-04-24T17:41:16;13.00;99.90
20345;DHT22;10330;48.816;9.278;2023-04-24T17:43:43;12.90;99.90
20345;DHT22;10330;48.816;9.278;2023-04-24T17:46:10;12.80;99.90
20345;DHT22;10330;48.816;9.278;2023-04-24T17:48:38;12.60;99.90
20345;DHT22;10330;48.816;9.278;2023-04-24T17:51:04;12.50;99.90
20345;DHT22;10330;48.816;9.278;2023-04-24T17:53:30;12.40;99.90
20345;DHT22;10330;48.816;9.278;2023-04-24T17:55:56;12.30;99.90
20345;DHT22;10330;48.816;9.278;2023-04-24T17:58:27;12.20;99.90
20345;DHT22;10330;48.816;9.278;2023-04-24T18:00:53;12.10;99.90
20345;DHT22;10330;48.816;9.278;2023-04-24T18:03:19;12.10;99.90
20345;DHT22;10330;48.816;9.278;2023-04-24T18:05:46;12.00;99.90
20345;DHT22;10330;48.816;9.278;2023-04-24T18:08:13;12.00;99.90
20345;DHT22;10330;48.816;9.278;2023-04-24T18:10:39;12.00;99.90
20345;DHT22;10330;48.816;9.278;2023-04-24T18:13:07;11.90;99.90
20345;DHT22;10330;48.816;9.278;2023-04-24T18:15:34;11.90;99.90
20345;DHT22;10330;48.816;9.278;2023-04-24T18:18:03;11.80;99.90
20345;DHT22;10330;48.816;9.278;2023-04-24T18:20:30;11.80;99.90
20345;DHT22;10330;48.816;9.278;2023-04-24T18:22:56;11.80;99.90
20345;DHT22;10330;48.816;9.278;2023-04-24T18:25:25;11.80;99.90
20345;DHT22;10330;48.816;9.278;2023-04-24T18:27:52;11.70;99.90
20345;DHT22;10330;48.816;9.278;2023-04-24T18:30:23;11.80;99.90
20345;DHT22;10330;48.816;9.278;2023-04-24T18:32:50;11.80;99.90
20345;DHT22;10330;48.816;9.278;2023-04-24T18:35:20;11.90;99.90
20345;DHT22;10330;48.816;9.278;2023-04-24T18:37:55;11.90;99.90
20345;DHT22;10330;48.816;9.278;2023-04-24T18:40:24;11.80;99.90
20345;DHT22;10330;48.816;9.278;2023-04-24T18:42:50;11.80;99.90
20345;DHT22;10330;48.816;9.278;2023-04-24T18:45:20;11.80;99.90
20345;DHT22;10330;48.816;9.278;2023-04-24T18:47:46;11.80;99.90
20345;DHT22;10330;48.816;9.278;2023-04-24T18:50:12;11.70;99.90
20345;DHT22;10330;48.816;9.278;2023-04-24T18:52:39;11.70;99.90
20345;DHT22;10330;48.816;9.278;2023-04-24T18:55:06;11.70;99.90
20345;DHT22;10330;48.816;9.278;2023-04-24T18:57:32;11.70;99.90
20345;DHT22;10330;48.816;9.278;2023-04-24T18:59:59;11.60;99.90
20345;DHT22;10330;48.816;9.278;2023-04-24T19:02:25;11.60;99.90
20345;DHT22;10330;48.816;9.278;2023-04-24T19:04:54;11.50;99.90
20345;DHT22;10330;48.816;9.278;2023-04-24T19:07:24;11.50;99.90
20345;DHT22;10330;48.816;9.278;2023-04-24T19:09:50;11.40;99.90
20345;DHT22;10330;48.816;9.278;2023-04-24T19:12:16;11.40;99.90
20345;DHT22;10330;48.816;9.278;2023-04-24T19:14:43;11.40;99.90
20345;DHT22;10330;48.816;9.278;2023-04-24T19:17:10;11.30;99.90
20345;DHT22;10330;48.816;9.278;2023-04-24T19:19:41;11.30;99.90
20345;DHT22;10330;48.816;9.278;2023-04-24T19:22:07;11.20;99.90
20345;DHT22;10330;48.816;9.278;2023-04-24T19:24:33;11.20;99.90
20345;DHT22;10330;48.816;9.278;2023-04-24T19:27:00;11.20;99.90
20345;DHT22;10330;48.816;9.278;2023-04-24T19:29:27;11.20;99.90
20345;DHT22;10330;48.816;9.278;2023-04-24T19:34:24;11.10;99.90
20345;DHT22;10330;48.816;9.278;2023-04-24T19:36:54;11.00;99.90
20345;DHT22;10330;48.816;9.278;2023-04-24T19:39:20;11.00;99.90
20345;DHT22;10330;48.816;9.278;2023-04-24T19:41:47;10.90;99.90
20345;DHT22;10330;48.816;9.278;2023-04-24T19:44:13;10.80;99.90
20345;DHT22;10330;48.816;9.278;2023-04-24T19:51:35;10.80;99.90
20345;DHT22;10330;48.816;9.278;2023-04-24T19:54:02;10.70;99.90
20345;DHT22;10330;48.816;9.278;2023-04-24T19:56:30;10.60;99.90
20345;DHT22;10330;48.816;9.278;2023-04-24T19:58:56;10.60;99.90
20345;DHT22;10330;48.816;9.278;2023-04-24T20:03:51;10.60;99.90
20345;DHT22;10330;48.816;9.278;2023-04-24T20:08:44;10.60;99.90
20345;DHT22;10330;48.816;9.278;2023-04-24T20:13:40;10.50;99.90
20345;DHT22;10330;48.816;9.278;2023-04-24T20:16:06;10.40;99.90
20345;DHT22;10330;48.816;9.278;2023-04-24T20:18:32;10.50;99.90
20345;DHT22;10330;48.816;9.278;2023-04-24T20:20:58;10.40;99.90
20345;DHT22;10330;48.816;9.278;2023-04-24T20:25:51;10.40;99.90
20345;DHT22;10330;48.816;9.278;2023-04-24T20:28:24;10.20;99.90
20345;DHT22;10330;48.816;9.278;2023-04-24T20:38:11;10.30;99.90
20345;DHT22;10330;48.816;9.278;2023-04-24T20:43:05;10.10;99.90
20345;DHT22;10330;48.816;9.278;2023-04-24T20:45:35;10.00;99.90
20345;DHT22;10330;48.816;9.278;2023-04-24T20:50:30;10.00;99.90
20345;DHT22;10330;48.816;9.278;2023-04-24T20:52:59;9.80;99.90
20345;DHT22;10330;48.816;9.278;2023-04-24T20:55:25;9.80;99.90
20345;DHT22;10330;48.816;9.278;2023-04-24T20:57:51;9.80;99.90
20345;DHT22;10330;48.816;9.278;2023-04-24T21:00:18;9.70;99.90
20345;DHT22;10330;48.816;9.278;2023-04-24T21:02:44;9.70;99.90
20345;DHT22;10330;48.816;9.278;2023-04-24T21:05:10;9.70;99.90
20345;DHT22;10330;48.816;9.278;2023-04-24T21:07:39;9.70;99.90
20345;DHT22;10330;48.816;9.278;2023-04-24T21:10:09;9.70;99.90
20345;DHT22;10330;48.816;9.278;2023-04-24T21:15:02;9.70;99.90
20345;DHT22;10330;48.816;9.278;2023-04-24T21:17:28;9.60;99.90
20345;DHT22;10330;48.816;9.278;2023-04-24T21:22:24;9.60;99.90
20345;DHT22;10330;48.816;9.278;2023-04-24T21:24:50;9.50;99.90
20345;DHT22;10330;48.816;9.278;2023-04-24T21:27:16;9.50;99.90
20345;DHT22;10330;48.816;9.278;2023-04-24T21:29:43;9.50;99.90
20345;DHT22;10330;48.816;9.278;2023-04-24T21:32:09;9.50;99.90
20345;DHT22;10330;48.816;9.278;2023-04-24T21:34:35;9.50;99.90
20345;DHT22;10330;48.816;9.278;2023-04-24T21:37:01;9.50;99.90
20345;DHT22;10330;48.816;9.278;2023-04-24T21:39:27;9.50;99.90
20345;DHT22;10330;48.816;9.278;2023-04-24T21:41:54;9.50;99.90
20345;DHT22;10330;48.816;9.278;2023-04-24T21:44:20;9.50;99.90
20345;DHT22;10330;48.816;9.278;2023-04-24T21:46:46;9.50;99.90
20345;DHT22;10330;48.816;9.278;2023-04-24T21:49:12;9.50;99.90
20345;DHT22;10330;48.816;9.278;2023-04-24T21:51:39;9.60;99.90
20345;DHT22;10330;48.816;9.278;2023-04-24T21:54:05;9.60;99.90
20345;DHT22;10330;48.816;9.278;2023-04-24T21:56:31;9.70;99.90
20345;DHT22;10330;48.816;9.278;2023-04-24T21:58:58;9.70;99.90
20345;DHT22;10330;48.816;9.278;2023-04-24T22:01:25;9.60;99.90
20345;DHT22;10330;48.816;9.278;2023-04-24T22:03:52;9.70;99.90
20345;DHT22;10330;48.816;9.278;2023-04-24T22:06:19;9.70;99.90
20345;DHT22;10330;48.816;9.278;2023-04-24T22:08:45;9.70;99.90
20345;DHT22;10330;48.816;9.278;2023-04-24T22:11:13;9.70;99.90
20345;DHT22;10330;48.816;9.278;2023-04-24T22:13:43;9.80;99.90
20345;DHT22;10330;48.816;9.278;2023-04-24T22:16:09;9.80;99.90
20345;DHT22;10330;48.816;9.278;2023-04-24T22:18:37;9.80;99.90
20345;DHT22;10330;48.816;9.278;2023-04-24T22:21:05;9.80;99.90
20345;DHT22;10330;48.816;9.278;2023-04-24T22:23:31;9.80;99.90
20345;DHT22;10330;48.816;9.278;2023-04-24T22:25:58;9.90;99.90
20345;DHT22;10330;48.816;9.278;2023-04-24T22:28:24;9.90;99.90
20345;DHT22;10330;48.816;9.278;2023-04-24T22:30:51;9.90;99.90
20345;DHT22;10330;48.816;9.278;2023-04-24T22:33:17;9.80;99.90
20345;DHT22;10330;48.816;9.278;2023-04-24T22:35:43;9.90;99.90
20345;DHT22;10330;48.816;9.278;2023-04-24T22:38:11;9.80;99.90
20345;DHT22;10330;48.816;9.278;2023-04-24T22:40:38;9.80;99.90
20345;DHT22;10330;48.816;9.278;2023-04-24T22:43:07;9.80;99.90
20345;DHT22;10330;48.816;9.278;2023-04-24T22:45:33;9.80;99.90
20345;DHT22;10330;48.816;9.278;2023-04-24T22:47:59;9.80;99.90
20345;DHT22;10330;48.816;9.278;2023-04-24T22:50:25;9.90;99.90
20345;DHT22;10330;48.816;9.278;2023-04-24T22:52:52;9.80;99.90
20345;DHT22;10330;48.816;9.278;2023-04-24T22:57:47;9.80;99.90
20345;DHT22;10330;48.816;9.278;2023-04-24T23:00:14;9.70;99.90
20345;DHT22;10330;48.816;9.278;2023-04-24T23:02:41;9.70;99.90
20345;DHT22;10330;48.816;9.278;2023-04-24T23:05:09;9.70;99.90
20345;DHT22;10330;48.816;9.278;2023-04-24T23:07:36;9.70;99.90
20345;DHT22;10330;48.816;9.278;2023-04-24T23:10:04;9.70;99.90
20345;DHT22;10330;48.816;9.278;2023-04-24T23:12:30;9.70;99.90
20345;DHT22;10330;48.816;9.278;2023-04-24T23:14:57;9.70;99.90
20345;DHT22;10330;48.816;9.278;2023-04-24T23:17:23;9.70;99.90
20345;DHT22;10330;48.816;9.278;2023-04-24T23:19:49;9.60;99.90
20345;DHT22;10330;48.816;9.278;2023-04-24T23:22:15;9.60;99.90
20345;DHT22;10330;48.816;9.278;2023-04-24T23:24:42;9.60;99.90
20345;DHT22;10330;48.816;9.278;2023-04-24T23:27:08;9.50;99.90
20345;DHT22;10330;48.816;9.278;2023-04-24T23:29:34;9.60;99.90
20345;DHT22;10330;48.816;9.278;2023-04-24T23:32:00;9.60;99.90
20345;DHT22;10330;48.816;9.278;2023-04-24T23:34:28;9.50;99.90
20345;DHT22;10330;48.816;9.278;2023-04-24T23:56:27;9.60;99.90
20345;DHT22;10330;48.816;9.278;2023-04-24T23:58:54;9.40;99.90
